Time;durP1;ratioP1;P1;durP2;ratioP2;P2;SDS_P1;SDS_P2;PMS_P1;PMS_P2;Temp;Humidity;BMP_temperature;BMP_pressure;BME280_temperature;BME280_humidity;BME280_pressure;Samples;Min_cycle;Max_cycle;Signal;HPM_P1;HPM_P2
2021/03/28 00:01:45;;;;;;;4.15;3.72;;;6.90;62.30;;;;;;6257880;22;20166;-91
2021/03/28 00:04:15;;;;;;;8.30;4.97;;;6.90;62.20;;;;;;6291181;22;20455;-91
2021/03/28 00:06:50;;;;;;;7.97;4.82;;;6.50;65.10;;;;;;6262194;22;20288;-91
2021/03/28 00:09:46;;;;;;;10.05;4.57;;;6.40;65.50;;;;;;6266818;22;20152;-93
2021/03/28 00:12:24;;;;;;;4.88;4.35;;;6.50;63.10;;;;;;6290595;22;20241;-90
2021/03/28 00:15:08;;;;;;;9.07;5.05;;;6.70;65.70;;;;;;6272887;22;20165;-90
2021/03/28 00:17:37;;;;;;;12.10;5.28;;;8.40;66.10;;;;;;6272548;22;20146;-91
2021/03/28 00:20:12;;;;;;;11.43;4.85;;;6.60;65.90;;;;;;6270199;22;20239;-92
2021/03/28 00:22:46;;;;;;;6.63;4.85;;;6.60;62.20;;;;;;6270945;22;20142;-90
2021/03/28 00:25:19;;;;;;;9.25;4.60;;;6.60;65.60;;;;;;6273987;22;20193;-90
2021/03/28 00:27:53;;;;;;;9.75;4.97;;;6.80;65.30;;;;;;6301053;22;20173;-91
2021/03/28 00:30:37;;;;;;;9.20;4.40;;;6.70;65.50;;;;;;6297483;22;20148;-91
2021/03/28 00:33:13;;;;;;;5.37;4.50;;;6.70;65.80;;;;;;6297367;22;20149;-91
2021/03/28 00:36:04;;;;;;;9.47;4.73;;;6.70;65.40;;;;;;6270498;22;20799;-89
2021/03/28 00:38:38;;;;;;;9.48;5.43;;;6.60;66.90;;;;;;6291099;22;20387;-90
2021/03/28 00:41:17;;;;;;;7.30;4.85;;;6.70;66.80;;;;;;6269817;22;20198;-91
2021/03/28 00:43:57;;;;;;;6.20;5.25;;;6.80;64.30;;;;;;6299124;22;20142;-89
2021/03/28 00:46:58;;;;;;;5.25;4.53;;;8.50;66.90;;;;;;6298979;22;20145;-91
2021/03/28 00:50:04;;;;;;;6.80;4.38;;;7.30;66.50;;;;;;6272654;22;20169;-90
2021/03/28 00:52:35;;;;;;;10.43;5.40;;;6.80;66.90;;;;;;6276639;22;20146;-91
2021/03/28 00:55:11;;;;;;;7.88;5.25;;;6.20;69.90;;;;;;6292713;22;20831;-90
2021/03/28 00:57:43;;;;;;;8.63;4.90;;;6.40;71.00;;;;;;6271023;22;20488;-91
2021/03/28 01:00:18;;;;;;;5.80;4.70;;;6.20;70.40;;;;;;6244686;22;20196;-92
2021/03/28 01:03:07;;;;;;;7.13;4.40;;;6.20;71.00;;;;;;6266972;22;20146;-92
2021/03/28 01:05:46;;;;;;;7.30;4.00;;;7.40;69.80;;;;;;6292305;22;20131;-90
2021/03/28 01:08:20;;;;;;;7.80;4.40;;;6.30;70.90;;;;;;6292631;22;20138;-91
2021/03/28 01:10:57;;;;;;;9.43;5.30;;;6.20;71.10;;;;;;6291128;22;20141;-91
2021/03/28 01:13:33;;;;;;;8.95;4.78;;;7.20;69.90;;;;;;6297367;22;20162;-91
2021/03/28 01:16:15;;;;;;;9.80;4.95;;;6.50;71.60;;;;;;6265176;22;20142;-91
2021/03/28 01:18:49;;;;;;;5.88;3.75;;;6.60;71.30;;;;;;6263612;22;20213;-91
2021/03/28 01:21:37;;;;;;;11.55;4.97;;;6.90;68.70;;;;;;6261602;22;20149;-90
2021/03/28 01:24:25;;;;;;;11.40;5.03;;;7.60;70.00;;;;;;6267625;22;20219;-90
2021/03/28 01:27:13;;;;;;;14.40;4.38;;;6.90;69.20;;;;;;6295161;22;20380;-90
2021/03/28 01:30:10;;;;;;;7.57;3.97;;;5.90;68.00;;;;;;6292787;22;20146;-90
2021/03/28 01:32:43;;;;;;;9.02;4.55;;;6.60;69.20;;;;;;6299191;22;20149;-90
2021/03/28 01:35:27;;;;;;;5.60;4.07;;;6.60;72.40;;;;;;6300792;22;20218;-90
2021/03/28 01:38:17;;;;;;;11.18;5.13;;;6.60;69.40;;;;;;6276528;22;20157;-90
2021/03/28 01:41:01;;;;;;;11.10;4.07;;;7.10;71.80;;;;;;6294695;22;20177;-92
2021/03/28 01:44:07;;;;;;;8.60;4.70;;;6.60;71.10;;;;;;6293241;22;20145;-91
2021/03/28 01:47:07;;;;;;;7.68;4.00;;;6.90;73.40;;;;;;6270921;22;20209;-90
2021/03/28 01:50:10;;;;;;;4.75;3.50;;;6.60;77.30;;;;;;6272231;22;20173;-92
2021/03/28 01:53:18;;;;;;;9.52;4.35;;;6.70;73.80;;;;;;6268258;22;20146;-90
2021/03/28 01:56:13;;;;;;;3.40;3.20;;;6.70;71.60;;;;;;6297863;22;20145;-91
2021/03/28 01:59:01;;;;;;;6.05;4.05;;;6.60;73.40;;;;;;6296720;22;20150;-90
2021/03/28 02:01:40;;;;;;;9.00;4.72;;;7.50;70.10;;;;;;6290822;22;20233;-92
2021/03/28 02:04:27;;;;;;;8.57;4.13;;;7.10;69.70;;;;;;6269393;22;20149;-91
2021/03/28 02:07:23;;;;;;;6.90;3.67;;;6.10;68.20;;;;;;6268849;22;20149;-90
2021/03/28 02:10:48;;;;;;;7.03;4.13;;;7.50;69.70;;;;;;6268709;22;20209;-91
2021/03/28 02:13:20;;;;;;;5.40;3.88;;;7.00;68.80;;;;;;6173891;23;20252;-91
2021/03/28 02:16:29;;;;;;;8.90;4.45;;;6.80;71.30;;;;;;6172941;23;20157;-91
2021/03/28 02:19:25;;;;;;;11.85;4.63;;;5.50;66.70;;;;;;6272252;22;20506;-89
2021/03/28 02:22:12;;;;;;;6.22;4.00;;;6.90;68.60;;;;;;6295866;22;20156;-90
2021/03/28 02:24:38;;;;;;;3.75;3.38;;;6.80;72.50;;;;;;6293498;22;20196;-90
2021/03/28 02:27:32;;;;;;;3.55;3.25;;;6.80;72.20;;;;;;6297412;22;20150;-90
2021/03/28 02:30:30;;;;;;;6.70;3.53;;;7.40;70.30;;;;;;6272432;22;20150;-91
2021/03/28 02:33:20;;;;;;;15.35;4.20;;;9.10;72.60;;;;;;6266566;22;20573;-90
2021/03/28 02:36:26;;;;;;;3.72;3.45;;;7.30;70.30;;;;;;6268690;22;20158;-92
2021/03/28 02:39:11;;;;;;;6.72;3.58;;;6.90;70.10;;;;;;6299553;22;20183;-91
2021/03/28 02:42:09;;;;;;;17.83;4.35;;;6.70;69.00;;;;;;6270779;22;20146;-91
2021/03/28 02:44:54;;;;;;;5.72;3.65;;;7.10;70.30;;;;;;6294793;22;20165;-89
2021/03/28 02:47:58;;;;;;;8.15;3.63;;;6.90;72.80;;;;;;6271414;22;20221;-90
2021/03/28 02:51:01;;;;;;;8.27;3.50;;;6.80;69.30;;;;;;6272185;22;20216;-90
2021/03/28 02:53:53;;;;;;;7.63;3.25;;;6.70;69.60;;;;;;6271718;22;20221;-90
2021/03/28 02:56:57;;;;;;;4.88;3.42;;;6.70;69.20;;;;;;6293440;22;20586;-91
2021/03/28 03:00:05;;;;;;;6.13;2.85;;;6.70;69.70;;;;;;6270548;22;20165;-89
2021/03/28 03:02:54;;;;;;;5.88;3.40;;;8.20;72.50;;;;;;6272898;22;20150;-91
2021/03/28 03:06:05;;;;;;;8.73;3.33;;;6.70;73.30;;;;;;6297872;22;20146;-90
2021/03/28 03:09:01;;;;;;;12.43;3.25;;;7.10;71.60;;;;;;6294987;22;20168;-91
2021/03/28 03:11:42;;;;;;;9.98;4.00;;;6.60;70.50;;;;;;6270585;22;20164;-90
2021/03/28 03:14:31;;;;;;;12.27;5.25;;;4.40;67.50;;;;;;6274849;22;20231;-89
2021/03/28 03:17:39;;;;;;;6.05;2.70;;;6.60;70.00;;;;;;6297779;22;20157;-90
2021/03/28 03:20:40;;;;;;;6.90;2.80;;;7.50;72.10;;;;;;6281755;22;20177;-90
2021/03/28 03:23:36;;;;;;;3.60;3.00;;;6.60;70.20;;;;;;6299873;22;20222;-92
2021/03/28 03:26:44;;;;;;;13.27;4.20;;;7.00;70.80;;;;;;6295431;22;20162;-90
2021/03/28 03:29:47;;;;;;;4.90;2.80;;;6.70;69.80;;;;;;6262771;22;20172;-90
2021/03/28 03:32:34;;;;;;;4.07;2.70;;;6.90;71.50;;;;;;6287067;22;20556;-91
2021/03/28 03:35:15;;;;;;;6.82;3.00;;;6.70;71.00;;;;;;6268882;22;20142;-90
2021/03/28 03:37:50;;;;;;;5.20;3.15;;;6.70;70.90;;;;;;6290400;22;20134;-91
2021/03/28 03:40:43;;;;;;;2.55;2.35;;;6.60;73.80;;;;;;6260381;22;20264;-91
2021/03/28 03:43:37;;;;;;;3.67;2.85;;;7.80;72.40;;;;;;6268802;22;20178;-90
2021/03/28 03:46:14;;;;;;;3.97;3.42;;;7.20;71.60;;;;;;6260492;22;20149;-91
2021/03/28 03:49:12;;;;;;;6.90;2.92;;;7.10;71.30;;;;;;6286343;22;20150;-90
2021/03/28 03:51:38;;;;;;;3.63;2.22;;;6.90;71.70;;;;;;6294170;22;20168;-90
2021/03/28 03:54:26;;;;;;;4.40;2.57;;;6.30;73.10;;;;;;6272888;22;20149;-89
2021/03/28 03:57:08;;;;;;;6.57;3.50;;;7.50;71.80;;;;;;6271957;22;20158;-90
2021/03/28 04:00:09;;;;;;;8.90;2.65;;;6.80;71.50;;;;;;6271334;22;20174;-89
2021/03/28 04:03:03;;;;;;;7.50;3.05;;;8.10;72.10;;;;;;6236364;23;20162;-90
2021/03/28 04:05:50;;;;;;;9.40;2.77;;;7.60;72.50;;;;;;6297381;22;20158;-91
2021/03/28 04:08:49;;;;;;;4.07;2.45;;;6.70;73.50;;;;;;6293685;22;20474;-90
2021/03/28 04:11:45;;;;;;;2.75;2.00;;;5.70;69.70;;;;;;6271403;22;20152;-89
2021/03/28 04:14:32;;;;;;;2.88;2.65;;;6.80;70.40;;;;;;6299483;22;20168;-89
2021/03/28 04:17:26;;;;;;;2.72;2.50;;;6.80;70.00;;;;;;6272414;22;20210;-88
2021/03/28 04:20:11;;;;;;;10.40;2.85;;;6.90;70.00;;;;;;6274422;22;20182;-90
2021/03/28 04:22:59;;;;;;;6.38;3.05;;;6.80;73.70;;;;;;6296006;22;20209;-90
2021/03/28 04:25:57;;;;;;;3.55;2.55;;;6.60;69.40;;;;;;6270714;22;20194;-90
2021/03/28 04:28:32;;;;;;;6.57;2.83;;;6.90;70.10;;;;;;6296679;22;20145;-91
2021/03/28 04:31:36;;;;;;;7.20;3.05;;;7.30;70.90;;;;;;6271143;22;20125;-89
2021/03/28 04:34:29;;;;;;;10.77;2.75;;;6.80;69.60;;;;;;6266551;22;20153;-89
2021/03/28 04:37:21;;;;;;;7.88;2.67;;;6.90;69.80;;;;;;6269595;22;20142;-90
2021/03/28 04:40:22;;;;;;;4.95;2.05;;;6.90;69.70;;;;;;6270922;22;20198;-89
2021/03/28 04:43:19;;;;;;;3.10;2.55;;;7.40;70.70;;;;;;6286644;22;20148;-90
2021/03/28 04:46:19;;;;;;;6.20;2.63;;;7.60;69.80;;;;;;6269985;22;20472;-90
2021/03/28 04:49:14;;;;;;;10.27;2.72;;;7.50;69.60;;;;;;6269347;22;20143;-90
2021/03/28 04:52:25;;;;;;;3.85;2.53;;;7.90;69.90;;;;;;6274879;22;20169;-90
2021/03/28 04:55:34;;;;;;;3.08;2.88;;;7.70;70.00;;;;;;6269482;22;20149;-90
2021/03/28 04:58:57;;;;;;;7.82;2.67;;;7.30;69.00;;;;;;6295132;22;20146;-89
2021/03/28 05:01:59;;;;;;;2.40;2.30;;;8.10;70.40;;;;;;6204796;23;20706;-90
2021/03/28 05:05:18;;;;;;;6.93;3.22;;;7.30;68.10;;;;;;6268350;22;20150;-88
2021/03/28 05:08:06;;;;;;;8.00;3.10;;;7.30;68.50;;;;;;6292116;22;20188;-90
2021/03/28 05:11:06;;;;;;;4.78;2.65;;;7.30;71.80;;;;;;6266742;22;20150;-90
2021/03/28 05:14:11;;;;;;;4.90;2.60;;;7.40;68.20;;;;;;6275137;22;20146;-89
2021/03/28 05:17:25;;;;;;;8.15;2.75;;;8.20;70.30;;;;;;6302405;22;20209;-89
2021/03/28 05:20:41;;;;;;;5.32;2.47;;;7.50;68.40;;;;;;6289348;22;20609;-91
2021/03/28 05:23:20;;;;;;;4.00;2.70;;;7.40;68.60;;;;;;6271756;22;20146;-88
2021/03/28 05:26:17;;;;;;;2.75;1.90;;;7.50;71.60;;;;;;6274753;22;20272;-89
2021/03/28 05:28:55;;;;;;;2.75;2.55;;;8.20;69.40;;;;;;6298917;22;20146;-89
2021/03/28 05:31:40;;;;;;;3.00;2.70;;;7.80;68.60;;;;;;6271936;22;20173;-88
2021/03/28 05:34:29;;;;;;;9.15;2.22;;;7.50;71.70;;;;;;6296682;22;20238;-92
2021/03/28 05:37:24;;;;;;;5.22;2.03;;;7.50;71.70;;;;;;6299200;22;20146;-90
2021/03/28 05:40:18;;;;;;;2.67;2.22;;;7.50;67.70;;;;;;6203130;23;20207;-89
2021/03/28 05:43:23;;;;;;;3.17;2.90;;;8.00;69.30;;;;;;6178176;23;20148;-89
2021/03/28 05:46:26;;;;;;;5.78;1.95;;;8.00;69.40;;;;;;6102820;23;20154;-89
2021/03/28 05:49:23;;;;;;;5.95;2.70;;;8.30;69.80;;;;;;6197390;23;20174;-89
2021/03/28 05:52:09;;;;;;;6.93;3.33;;;7.80;69.00;;;;;;6197410;23;20151;-89
2021/03/28 05:55:17;;;;;;;5.00;2.70;;;8.00;69.10;;;;;;6207402;23;20395;-91
2021/03/28 05:57:46;;;;;;;5.20;2.50;;;7.90;68.60;;;;;;6204240;23;20231;-90
2021/03/28 06:00:56;;;;;;;5.20;3.03;;;7.90;68.10;;;;;;6206281;23;20191;-90
2021/03/28 06:03:50;;;;;;;4.10;2.55;;;7.80;68.60;;;;;;6084175;23;20181;-91
2021/03/28 06:06:48;;;;;;;6.07;2.73;;;8.30;69.10;;;;;;6081873;23;20161;-90
2021/03/28 06:09:38;;;;;;;8.40;3.00;;;7.90;68.10;;;;;;6162335;23;20414;-90
2021/03/28 06:12:14;;;;;;;4.40;2.38;;;7.90;68.10;;;;;;6261062;22;20146;-90
2021/03/28 06:14:56;;;;;;;2.00;1.90;;;8.10;68.00;;;;;;6264607;22;20145;-90
2021/03/28 06:17:58;;;;;;;3.50;2.45;;;8.10;67.90;;;;;;6289544;22;20166;-89
2021/03/28 06:21:14;;;;;;;2.50;2.03;;;8.20;68.10;;;;;;6265775;22;20184;-90
2021/03/28 06:23:51;;;;;;;2.83;2.03;;;8.30;67.90;;;;;;6289266;22;20305;-89
2021/03/28 06:26:43;;;;;;;6.50;2.40;;;8.20;67.70;;;;;;6231883;23;20257;-87
2021/03/28 06:29:59;;;;;;;5.50;2.75;;;8.10;71.80;;;;;;6232998;23;20398;-89
2021/03/28 06:32:46;;;;;;;3.70;3.00;;;8.30;67.90;;;;;;6219917;23;20181;-90
2021/03/28 06:35:54;;;;;;;5.28;2.30;;;8.20;68.20;;;;;;6237922;23;20165;-90
2021/03/28 06:38:46;;;;;;;3.15;1.98;;;8.20;68.40;;;;;;6242986;23;20142;-89
2021/03/28 06:41:22;;;;;;;4.63;2.63;;;8.10;71.40;;;;;;6239666;23;20245;-89
2021/03/28 06:44:10;;;;;;;4.93;2.30;;;8.10;71.40;;;;;;6238670;23;20377;-89
2021/03/28 06:46:54;;;;;;;3.45;2.20;;;8.00;72.50;;;;;;6233695;23;20162;-88
2021/03/28 06:50:07;;;;;;;2.55;2.10;;;8.30;68.70;;;;;;6265957;23;20135;-89
2021/03/28 06:53:05;;;;;;;4.60;2.67;;;8.30;69.10;;;;;;6261792;23;20170;-90
2021/03/28 06:55:40;;;;;;;3.55;2.75;;;8.30;69.00;;;;;;6200268;23;20281;-90
2021/03/28 06:58:20;;;;;;;2.58;2.47;;;7.70;72.80;;;;;;6241226;23;20177;-91
2021/03/28 07:01:17;;;;;;;3.35;2.78;;;8.30;69.30;;;;;;6245064;23;20190;-89
2021/03/28 07:04:09;;;;;;;5.55;2.35;;;8.40;68.40;;;;;;6244623;23;20154;-90
2021/03/28 07:07:02;;;;;;;4.18;2.55;;;8.50;68.70;;;;;;6243223;23;20342;-90
2021/03/28 07:09:27;;;;;;;4.10;2.60;;;8.70;68.70;;;;;;6243945;23;20144;-90
2021/03/28 07:12:31;;;;;;;8.70;2.73;;;9.80;73.90;;;;;;6241217;23;20154;-89
2021/03/28 07:15:28;;;;;;;6.23;2.30;;;8.60;69.00;;;;;;6240173;23;20162;-89
2021/03/28 07:18:17;;;;;;;8.68;2.92;;;8.70;69.20;;;;;;6240680;23;20385;-91
2021/03/28 07:21:10;;;;;;;3.25;2.45;;;8.60;68.10;;;;;;6265445;23;20257;-91
2021/03/28 07:24:03;;;;;;;4.65;2.50;;;8.90;67.70;;;;;;6274636;22;20126;-91
2021/03/28 07:27:12;;;;;;;6.70;4.75;;;8.90;67.30;;;;;;6305323;22;20127;-90
2021/03/28 07:32:37;;;;;;;11.77;2.72;;;9.00;66.30;;;;;;6151574;22;20216;-89
2021/03/28 07:35:37;;;;;;;2.40;2.30;;;11.10;67.90;;;;;;6117190;23;20146;-89
2021/03/28 07:38:37;;;;;;;9.33;2.50;;;6.60;62.60;;;;;;6221188;23;20139;-88
2021/03/28 07:41:17;;;;;;;2.88;2.58;;;9.20;66.10;;;;;;6119603;23;20392;-90
2021/03/28 07:43:52;;;;;;;3.30;3.08;;;9.20;65.50;;;;;;6220340;23;20134;-88
2021/03/28 08:53:39;;;;;;;3.93;2.80;;;13.00;56.10;;;;;;6207267;22;20462;-88
2021/03/28 08:56:42;;;;;;;3.23;2.90;;;12.80;62.20;;;;;;6220006;22;20491;-91
2021/03/28 09:12:48;;;;;;;;;;;;;;;;;;;;;
2021/03/28 09:20:32;;;;;;;;;;;;;;;;;;;;;
2021/03/28 09:31:50;;;;;;;3.23;1.80;;;16.30;50.00;;;;;;6119854;23;20369;-92
2021/03/28 09:45:21;;;;;;;9.13;3.53;;;16.70;49.60;;;;;;6089188;23;20442;-91
2021/03/28 09:48:26;;;;;;;3.07;2.83;;;16.80;50.50;;;;;;6219320;23;20409;-91
2021/03/28 10:06:37;;;;;;;3.50;1.43;;;16.90;33.30;;;;;;6109041;23;20433;-89
2021/03/28 10:54:17;;;;;;;4.20;2.30;;;17.70;47.90;;;;;;6204658;23;20454;-89
2021/03/28 10:57:16;;;;;;;5.07;2.20;;;17.20;47.80;;;;;;6239555;23;20427;-88
2021/03/28 11:05:27;;;;;;;2.30;1.60;;;;;;;;;;6158687;23;20454;-90
2021/03/28 11:08:12;;;;;;;7.77;2.53;;;16.10;50.10;;;;;;6247790;22;20404;-91
2021/03/28 11:10:56;;;;;;;2.47;1.90;;;16.30;48.30;;;;;;6284558;22;20369;-89
2021/03/28 11:14:08;;;;;;;6.27;2.20;;;16.60;47.40;;;;;;6274571;22;20424;-91
2021/03/28 11:17:05;;;;;;;2.50;1.63;;;16.40;47.70;;;;;;6299354;22;20357;-88
2021/03/28 11:20:05;;;;;;;2.93;2.17;;;16.00;47.90;;;;;;6301739;22;20436;-90
2021/03/28 11:29:02;;;;;;;2.17;1.80;;;15.90;49.30;;;;;;6225810;23;20449;-90
2021/03/28 11:31:37;;;;;;;4.77;2.27;;;15.60;49.90;;;;;;6214095;23;20379;-89
2021/03/28 11:34:19;;;;;;;3.27;2.43;;;16.20;52.70;;;;;;6214059;23;20394;-89
2021/03/28 11:40:38;;;;;;;3.30;2.03;;;16.10;54.40;;;;;;6168530;22;20480;-90
2021/03/28 11:43:06;;;;;;;1.80;1.80;;;15.80;54.20;;;;;;6122187;23;20512;-90
2021/03/28 11:45:38;;;;;;;2.23;2.10;;;15.80;54.00;;;;;;6115420;23;20374;-92
2021/03/28 11:50:56;;;;;;;14.20;4.67;;;16.00;51.00;;;;;;6085081;23;20443;-89
2021/03/28 11:53:25;;;;;;;3.20;1.73;;;15.60;53.80;;;;;;6174226;23;20379;-89
2021/03/28 11:56:14;;;;;;;4.10;2.70;;;15.80;57.00;;;;;;6086788;23;20442;-88
2021/03/28 11:58:42;;;;;;;5.90;2.50;;;15.30;53.80;;;;;;6087962;23;20426;-88
2021/03/28 12:01:14;;;;;;;5.67;3.10;;;15.30;54.50;;;;;;6184212;23;20469;-89
2021/03/28 12:03:48;;;;;;;4.83;2.53;;;15.40;54.80;;;;;;6060847;23;20410;-89
2021/03/28 12:06:17;;;;;;;2.87;2.40;;;15.70;53.40;;;;;;6061546;23;20458;-91
2021/03/28 12:08:51;;;;;;;3.23;2.10;;;16.10;54.30;;;;;;6187683;22;20418;-90
2021/03/28 12:11:46;;;;;;;2.70;2.53;;;16.30;53.90;;;;;;6194973;22;20591;-90
2021/03/28 12:20:26;;;;;;;5.00;2.20;;;16.00;51.50;;;;;;6130547;23;20453;-88
2021/03/28 12:23:00;;;;;;;4.50;2.30;;;15.80;51.10;;;;;;6084236;23;20449;-90
2021/03/28 12:25:37;;;;;;;7.00;3.20;;;16.10;56.40;;;;;;6112103;23;20370;-89
2021/03/28 12:28:20;;;;;;;2.67;2.57;;;16.00;56.20;;;;;;6095283;22;20552;-89
2021/03/28 12:30:56;;;;;;;5.10;1.60;;;16.10;56.20;;;;;;6077052;22;22204;-92
2021/03/28 12:36:21;;;;;;;;;;;;;;;;;;;;;
2021/03/28 12:38:56;;;;;;;5.77;2.60;;;15.80;56.50;;;;;;6209199;23;20363;-91
2021/03/28 12:41:26;;;;;;;2.70;1.73;;;;;;;;;;6182982;23;20403;-93
2021/03/28 12:44:28;;;;;;;2.17;1.97;;;16.00;55.10;;;;;;6209712;23;20356;-91
2021/03/28 12:47:11;;;;;;;2.03;1.87;;;;;;;;;;6208235;22;20449;-89
2021/03/28 12:50:00;;;;;;;2.47;1.30;;;16.40;55.30;;;;;;6268794;23;20381;-91
2021/03/28 12:55:55;;;;;;;2.40;2.30;;;15.70;53.10;;;;;;6245238;22;20525;-88
2021/03/28 12:58:42;;;;;;;2.50;2.30;;;15.50;54.80;;;;;;6239901;23;20463;-88
2021/03/28 13:03:49;;;;;;;4.13;2.73;;;15.50;54.10;;;;;;6236874;22;20444;-88
2021/03/28 13:06:17;;;;;;;3.27;2.13;;;15.50;53.70;;;;;;6213578;23;20378;-92
2021/03/28 13:09:16;;;;;;;2.57;1.90;;;15.40;54.90;;;;;;6214103;23;20385;-90
2021/03/28 13:17:35;;;;;;;3.07;2.70;;;15.20;55.60;;;;;;6121112;23;20412;-88
2021/03/28 13:26:35;;;;;;;3.53;2.27;;;;;;;;;;6117222;23;20485;-90
2021/03/28 13:32:27;;;;;;;6.43;2.43;;;15.60;55.80;;;;;;6116458;23;20381;-89
2021/03/28 13:35:04;;;;;;;1.90;1.53;;;15.50;56.70;;;;;;6090236;23;20465;-90
2021/03/28 13:43:02;;;;;;;4.23;1.50;;;15.50;54.70;;;;;;6135465;23;20437;-91
2021/03/28 13:45:30;;;;;;;3.57;2.53;;;15.50;55.20;;;;;;6182050;22;20448;-90
2021/03/28 13:50:45;;;;;;;2.57;2.23;;;;;;;;;;6111189;22;20521;-88
2021/03/28 13:58:39;;;;;;;3.03;2.20;;;15.20;55.80;;;;;;6105388;22;20449;-90
2021/03/28 14:04:09;;;;;;;1.57;1.43;;;;;;;;;;6112761;23;20446;-89
2021/03/28 14:09:21;;;;;;;1.93;1.83;;;;;;;;;;6086755;22;20455;-89
2021/03/28 14:12:14;;;;;;;1.40;1.30;;;;;;;;;;6209546;22;20439;-89
2021/03/28 14:14:42;;;;;;;2.33;2.23;;;;;;;;;;6169652;22;20463;-88
2021/03/28 14:17:46;;;;;;;1.90;1.80;;;;;;;;;;6271219;22;20376;-89
2021/03/28 14:20:45;;;;;;;3.20;1.47;;;14.60;57.70;;;;;;6101243;23;20536;-88
2021/03/28 14:23:30;;;;;;;1.57;1.47;;;14.70;55.20;;;;;;6131517;22;20445;-89
2021/03/28 14:26:02;;;;;;;5.93;2.03;;;14.60;56.90;;;;;;6093151;23;20454;-89
2021/03/28 14:28:27;;;;;;;2.20;1.87;;;14.60;57.10;;;;;;6216948;23;20396;-89
2021/03/28 14:31:13;;;;;;;7.03;1.63;;;;;;;;;;6116743;23;20395;-89
2021/03/28 14:39:22;;;;;;;2.00;1.80;;;;;;;;;;6100379;23;20894;-90
2021/03/28 14:42:27;;;;;;;2.17;2.00;;;14.70;56.20;;;;;;6208894;23;20378;-89
2021/03/28 14:45:52;;;;;;;2.33;2.20;;;14.60;55.10;;;;;;6209057;23;20442;-91
2021/03/28 14:48:36;;;;;;;5.10;2.73;;;14.50;55.40;;;;;;6205781;23;20443;-89
2021/03/28 14:51:54;;;;;;;2.70;1.87;;;14.30;57.80;;;;;;6205888;23;20359;-90
2021/03/28 14:54:41;;;;;;;4.50;2.43;;;14.80;57.50;;;;;;6209198;23;20399;-89
2021/03/28 14:59:55;;;;;;;2.43;1.73;;;;;;;;;;6259039;22;20433;-88
2021/03/28 15:02:38;;;;;;;2.73;2.17;;;;;;;;;;6168075;23;20389;-90
2021/03/28 15:11:27;;;;;;;6.37;2.43;;;14.30;46.30;;;;;;6146666;23;20501;-90
2021/03/28 15:14:20;;;;;;;3.03;2.50;;;14.70;47.50;;;;;;6121845;22;20393;-89
2021/03/28 15:17:16;;;;;;;6.03;5.43;;;14.20;47.30;;;;;;6144010;23;20357;-91
2021/03/28 15:20:25;;;;;;;2.57;2.43;;;14.20;46.90;;;;;;6141810;23;20397;-90
2021/03/28 15:23:37;;;;;;;2.50;2.40;;;14.10;49.10;;;;;;6141121;23;20446;-89
2021/03/28 15:29:09;;;;;;;2.30;1.97;;;;;;;;;;6114329;23;20517;-90
2021/03/28 15:32:07;;;;;;;;;;;;;;;;;;;;;
2021/03/28 15:35:08;;;;;;;6.00;1.93;;;;;;;;;;6109656;23;20449;-90
2021/03/28 15:48:20;;;;;;;5.47;2.40;;;;;;;;;;6123541;23;20530;-90
2021/03/28 15:51:12;;;;;;;2.20;1.90;;;;;;;;;;6219169;23;20386;-92
2021/03/28 15:53:58;;;;;;;17.77;11.70;;;;;;;;;;6117649;23;20374;-88
2021/03/28 15:56:36;;;;;;;3.20;2.90;;;;;;;;;;6119996;23;20417;-89
2021/03/28 16:14:21;;;;;;;4.67;2.33;;;;;;;;;;6089540;23;21866;-90
2021/03/28 16:19:38;;;;;;;4.67;3.13;;;;;;;;;;6086354;23;20533;-91
2021/03/28 16:30:58;;;;;;;14.73;5.90;;;;;;;;;;6114747;23;20453;-87
2021/03/28 16:42:04;;;;;;;;;;;;;;;;;;;;;
2021/03/28 16:44:53;;;;;;;3.57;2.17;;;14.30;58.00;;;;;;6100463;23;20410;-91
2021/03/28 16:47:28;;;;;;;2.07;1.93;;;14.30;58.10;;;;;;6103641;23;20436;-90
2021/03/28 16:50:27;;;;;;;3.47;2.93;;;14.30;58.20;;;;;;6200371;23;20400;-92
2021/03/28 17:03:16;;;;;;;3.10;2.70;;;;;;;;;;6116773;23;20572;-88
2021/03/28 17:08:58;;;;;;;;;;;;;;;;;;;;;
2021/03/28 17:11:36;;;;;;;4.80;2.53;;;;;;;;;;6102634;23;20399;-91
2021/03/28 17:14:28;;;;;;;4.00;2.37;;;14.20;62.30;;;;;;6219529;23;20405;-88
2021/03/28 17:17:17;;;;;;;3.43;2.57;;;;;;;;;;6091298;23;20370;-91
2021/03/28 17:19:56;;;;;;;;;;;;;;;;;;;;;
2021/03/28 17:22:45;;;;;;;2.67;2.47;;;;;;;;;;6111698;23;20398;-90
2021/03/28 17:25:31;;;;;;;3.70;2.33;;;;;;;;;;6098883;23;20367;-92
2021/03/28 17:28:14;;;;;;;3.63;2.47;;;;;;;;;;6099682;23;20366;-92
2021/03/28 17:30:51;;;;;;;2.90;2.70;;;;;;;;;;6199677;23;20736;-90
2021/03/28 17:33:58;;;;;;;11.17;3.13;;;13.90;60.60;;;;;;6209881;23;20644;-90
2021/03/28 17:36:23;;;;;;;6.20;2.90;;;13.80;60.50;;;;;;6107634;23;20830;-90
2021/03/28 17:39:10;;;;;;;4.23;2.40;;;13.80;62.20;;;;;;6210578;23;20394;-91
2021/03/28 17:42:01;;;;;;;5.97;2.40;;;13.80;63.50;;;;;;6171354;22;20289;-90
2021/03/28 17:44:38;;;;;;;2.50;2.00;;;;;;;;;;6290197;22;20396;-90
2021/03/28 17:47:16;;;;;;;2.40;2.13;;;13.80;65.50;;;;;;6260585;22;20379;-91
2021/03/28 17:49:42;;;;;;;3.50;3.30;;;13.70;63.50;;;;;;6283871;22;20432;-91
2021/03/28 17:53:15;;;;;;;7.37;3.73;;;13.60;63.20;;;;;;6271099;22;20795;-91
2021/03/28 17:56:35;;;;;;;3.80;3.00;;;13.60;59.80;;;;;;6299287;22;20146;-91
2021/03/28 17:59:06;;;;;;;3.53;3.03;;;13.70;60.30;;;;;;6221993;22;20373;-91
2021/03/28 18:01:46;;;;;;;4.57;3.07;;;13.70;63.80;;;;;;6302616;22;20420;-89
2021/03/28 18:04:48;;;;;;;6.40;5.80;;;13.60;60.90;;;;;;6275354;22;20452;-90
2021/03/28 18:07:29;;;;;;;;;;;;;;;;;;;;;
2021/03/28 18:10:08;;;;;;;3.33;3.03;;;13.50;61.30;;;;;;6295883;22;20373;-92
2021/03/28 18:12:52;;;;;;;3.13;2.20;;;13.60;61.70;;;;;;6269037;22;20388;-91
2021/03/28 18:15:24;;;;;;;2.73;2.53;;;13.50;65.30;;;;;;6297978;22;20353;-91
2021/03/28 18:17:55;;;;;;;2.20;2.00;;;13.50;62.30;;;;;;6264181;22;20385;-93
2021/03/28 18:20:41;;;;;;;3.40;2.47;;;13.50;65.30;;;;;;6298744;22;20462;-91
2021/03/28 18:23:51;;;;;;;;;;;;;;;;;;;;;
2021/03/28 18:26:41;;;;;;;3.57;2.90;;;13.50;67.90;;;;;;6297051;22;20376;-93
2021/03/28 18:30:27;;;;;;;2.80;2.60;;;13.50;68.30;;;;;;6297242;22;20373;-91
2021/03/28 18:32:37;;;;;;;3.90;3.07;;;13.50;65.50;;;;;;6281642;22;20439;-91
2021/03/28 18:35:33;;;;;;;3.80;2.70;;;13.40;66.20;;;;;;6202394;22;20464;-89
2021/03/28 18:59:51;;;;;;;4.70;2.77;;;;;;;;;;6084785;23;20511;-92
2021/03/28 19:02:18;;;;;;;3.60;2.70;;;;;;;;;;6061153;23;20409;-92
2021/03/28 19:15:31;;;;;;;4.67;2.97;;;13.40;66.10;;;;;;6113286;22;20498;-95
2021/03/28 20:08:38;;;;;;;6.63;3.53;;;12.90;56.60;;;;;;6121376;22;20449;-92
2021/03/28 20:11:11;;;;;;;5.70;4.17;;;12.90;55.90;;;;;;6117382;23;20367;-93
2021/03/28 20:13:53;;;;;;;10.93;4.77;;;12.90;57.60;;;;;;6117008;23;20390;-90
2021/03/28 20:16:38;;;;;;;4.90;4.60;;;12.90;56.10;;;;;;6093309;23;20404;-92
2021/03/28 20:19:18;;;;;;;7.40;3.53;;;12.80;57.70;;;;;;6093594;23;20468;-91
2021/03/28 20:22:42;;;;;;;6.20;3.27;;;12.90;56.40;;;;;;6095554;23;20473;-92
2021/03/28 20:25:51;;;;;;;4.73;3.90;;;12.90;57.10;;;;;;6070726;23;20532;-91
2021/03/28 20:32:47;;;;;;;6.67;4.30;;;12.80;67.30;;;;;;6091927;23;20460;-94
2021/03/28 20:35:47;;;;;;;4.33;3.50;;;15.70;53.20;;;;;;6158058;23;20422;-92
2021/03/28 21:04:29;;;;;;;;;;;;;;;;;;;;;
2021/03/28 21:07:12;;;;;;;;;;;;;;;;;;;;;
2021/03/28 21:39:17;;;;;;;;;;;;;;;;;;;;;
2021/03/28 21:42:19;;;;;;;7.20;4.23;;;12.90;51.30;;;;;;6120381;23;20448;-91
2021/03/28 22:05:56;;;;;;;;;;;;;;;;;;;;;
2021/03/28 22:14:06;;;;;;;7.22;4.47;;;11.40;50.50;;;;;;6109161;22;20198;-92
2021/03/28 22:16:55;;;;;;;8.23;4.50;;;12.20;52.80;;;;;;6094678;23;20210;-92
2021/03/28 22:19:25;;;;;;;8.87;4.37;;;12.60;52.20;;;;;;6095612;23;20137;-91
